Bookmark and Share
Track history (hours):
 

Viimsi

Last reported at 2014-Apr-17 00:33 UTC. Time now 2014-Apr-17 00:52 UTC.
Position N 59°28' E 024°43'.

Length 78 m; draft 4.5 m.

Type: Ship. MMSI: 276297000.

NotesDate/timePositionNaut miles runAvg speedWind from/ knotsBaromVisibWave heightAir tempDewpointWater temp
2014-Apr-17 00:33N 59°28' E 024°43'0 0.0
2014-Apr-16 23:33N 59°28' E 024°43'0 0.0
2014-Apr-16 22:33N 59°28' E 024°43'0 0.0
2014-Apr-16 21:33N 59°28' E 024°43'0 0.0
2014-Apr-16 20:33N 59°28' E 024°43'0 0.0
2014-Apr-16 19:33N 59°28' E 024°43'0 0.0
2014-Apr-16 18:33N 59°28' E 024°43'0 0.0
2014-Apr-16 17:33N 59°28' E 024°43'0 0.0
2014-Apr-16 16:33N 59°28' E 024°43'0 0.0
2014-Apr-16 15:33N 59°28' E 024°43'0 0.0
2014-Apr-16 14:33N 59°28' E 024°43'0 0.0
2014-Apr-16 13:33N 59°28' E 024°43'0 0.0
2014-Apr-16 12:33N 59°28' E 024°43'0 0.0
2014-Apr-16 11:33N 59°28' E 024°43'0 0.0
2014-Apr-16 10:33N 59°28' E 024°43'0 0.0
2014-Apr-16 09:33N 59°28' E 024°43'0 0.0
2014-Apr-16 08:33N 59°28' E 024°43'0 0.0
2014-Apr-16 07:33N 59°28' E 024°43'0 0.0
2014-Apr-16 06:33N 59°28' E 024°43'0 0.0
2014-Apr-16 05:33N 59°28' E 024°43'0 0.0
2014-Apr-16 04:33N 59°28' E 024°43'2 2.1
2014-Apr-16 03:33N 59°27' E 024°47'0 0.3
2014-Apr-16 02:33N 59°27' E 024°46'0 0.0
2014-Apr-16 01:33N 59°27' E 024°46'0 0.0
2014-Apr-16 00:33N 59°27' E 024°46'0 0.0
2014-Apr-15 23:33N 59°27' E 024°46'0 0.0
2014-Apr-15 22:33N 59°27' E 024°46'1 0.7
2014-Apr-15 21:33N 59°27' E 024°46'5 4.5
2014-Apr-15 20:33N 59°29' E 024°38'1 1.3
2014-Apr-15 19:33N 59°28' E 024°39'0 0.0
2014-Apr-15 18:33N 59°28' E 024°39'0 0.0
2014-Apr-15 17:33N 59°28' E 024°39'0 0.0
2014-Apr-15 16:33N 59°28' E 024°39'0 0.0
2014-Apr-15 15:33N 59°28' E 024°39'0 0.0
2014-Apr-15 14:33N 59°28' E 024°39'0 0.0
2014-Apr-15 12:34N 59°28' E 024°39'0 0.0
2014-Apr-15 11:34N 59°28' E 024°39'0 0.0
2014-Apr-15 10:34N 59°28' E 024°39'0 0.0
2014-Apr-15 09:34N 59°28' E 024°39'0 0.0
2014-Apr-15 08:34N 59°28' E 024°39'0 0.0
2014-Apr-15 07:34N 59°28' E 024°39'0 0.0
2014-Apr-15 06:34N 59°28' E 024°39'0 0.0
2014-Apr-15 05:34N 59°28' E 024°39'0 0.0
2014-Apr-15 03:34N 59°28' E 024°39'0 0.0
2014-Apr-15 02:34N 59°28' E 024°39'0 0.0
2014-Apr-15 01:34N 59°28' E 024°39'3 3.0
2014-Apr-15 00:34N 59°29' E 024°44'2 2.5
2014-Apr-14 23:34N 59°27' E 024°46'0 0.0
2014-Apr-14 22:34N 59°27' E 024°46'0 0.0
2014-Apr-14 21:34N 59°27' E 024°46'0 0.3
2014-Apr-14 20:33N 59°27' E 024°47'1 0.9
2014-Apr-14 19:34N 59°28' E 024°45'0 0.0
2014-Apr-14 18:34N 59°28' E 024°45'0 0.0
2014-Apr-14 17:34N 59°28' E 024°45'0 0.0
2014-Apr-14 16:34N 59°28' E 024°45'4 4.0
2014-Apr-14 15:33N 59°29' E 024°38'2 1.8
2014-Apr-14 14:34N 59°28' E 024°39'0 0.0
2014-Apr-14 13:33N 59°28' E 024°39'0 0.0
2014-Apr-14 11:34N 59°28' E 024°39'0 0.2
2014-Apr-14 10:33N 59°28' E 024°39'1 0.6
2014-Apr-14 09:33N 59°28' E 024°38'  
2014-Apr-11 03:24N 59°30' E 024°32'6 7.6
2014-Apr-11 02:33N 59°29' E 024°44'2 1.8
2014-Apr-11 01:33N 59°28' E 024°43'0 0.0
2014-Apr-11 00:33N 59°28' E 024°43'0 0.0
2014-Apr-10 23:33N 59°28' E 024°43'0 0.0
2014-Apr-10 22:33N 59°28' E 024°43'0 0.0
2014-Apr-10 21:33N 59°28' E 024°43'0 0.0
2014-Apr-10 20:33N 59°28' E 024°43'0 0.0
2014-Apr-10 19:33N 59°28' E 024°43'0 0.0
2014-Apr-10 18:33N 59°28' E 024°43'3 2.8
2014-Apr-10 17:33N 59°30' E 024°40'4 3.1
2014-Apr-10 16:14N 59°29' E 024°32'0 0.0
2014-Apr-10 15:29N 59°29' E 024°32'0 0.1
2014-Apr-10 14:33N 59°29' E 024°32'0 0.0
2014-Apr-10 13:27N 59°29' E 024°32'0 0.2
2014-Apr-10 12:32N 59°29' E 024°32'0 0.1
2014-Apr-10 11:33N 59°29' E 024°32'0 0.0
2014-Apr-10 10:33N 59°29' E 024°32'6 5.5
2014-Apr-10 09:33N 59°30' E 024°43'2 2.2
2014-Apr-10 08:33N 59°28' E 024°43'0 0.0
2014-Apr-10 07:33N 59°28' E 024°43'0 0.0
2014-Apr-10 06:33N 59°28' E 024°43'0 0.0
2014-Apr-10 05:33N 59°28' E 024°43'0 0.0
2014-Apr-10 04:33N 59°28' E 024°43'0 0.0
2014-Apr-10 03:33N 59°28' E 024°43'0 0.0
2014-Apr-10 02:33N 59°28' E 024°43'0 0.0
2014-Apr-10 01:34N 59°28' E 024°43'0 0.0
2014-Apr-10 00:33N 59°28' E 024°43'0 0.0
2014-Apr-09 23:33N 59°28' E 024°43'0 0.0
2014-Apr-09 22:33N 59°28' E 024°43'0 0.0
2014-Apr-09 21:33N 59°28' E 024°43'0 0.0
2014-Apr-09 20:33N 59°28' E 024°43'0 0.0
2014-Apr-09 19:33N 59°28' E 024°43'0 0.0
2014-Apr-09 18:33N 59°28' E 024°43'0 0.0
2014-Apr-09 17:33N 59°28' E 024°43'0 0.0
2014-Apr-09 16:33N 59°28' E 024°43'0 0.0
2014-Apr-09 15:33N 59°28' E 024°43'0 0.0
2014-Apr-09 14:34N 59°28' E 024°43'0 0.0
2014-Apr-09 13:33N 59°28' E 024°43'0 0.0
2014-Apr-09 12:33N 59°28' E 024°43'0 0.0
2014-Apr-09 11:33N 59°28' E 024°43'0 0.0
2014-Apr-09 10:33N 59°28' E 024°43'0 0.0
2014-Apr-09 09:33N 59°28' E 024°43'0 0.0
2014-Apr-09 08:34N 59°28' E 024°43'0 0.0
2014-Apr-09 07:33N 59°28' E 024°43'0 0.0
2014-Apr-09 06:33N 59°28' E 024°43'0 0.0
2014-Apr-09 05:33N 59°28' E 024°43'0 0.0
2014-Apr-09 04:33N 59°28' E 024°43'0 0.0
2014-Apr-09 03:33N 59°28' E 024°43'0 0.0
2014-Apr-09 02:33N 59°28' E 024°43'0 0.0
2014-Apr-09 01:33N 59°28' E 024°43'0 0.0
2014-Apr-09 00:33N 59°28' E 024°43'0 0.0
2014-Apr-08 23:33N 59°28' E 024°43'0 0.0
2014-Apr-08 22:33N 59°28' E 024°43'0 0.0
2014-Apr-08 21:33N 59°28' E 024°43'0 0.0
2014-Apr-08 20:33N 59°28' E 024°43'0 0.0
2014-Apr-08 19:33N 59°28' E 024°43'0 0.0
2014-Apr-08 18:33N 59°28' E 024°43'0 0.0
2014-Apr-08 17:33N 59°28' E 024°43'0 0.0
2014-Apr-08 16:34N 59°28' E 024°43'0 0.0
2014-Apr-08 15:33N 59°28' E 024°43'0 0.0
2014-Apr-08 14:33N 59°28' E 024°43'0 0.0
2014-Apr-08 13:33N 59°28' E 024°43'0 0.0
2014-Apr-08 12:34N 59°28' E 024°43'0 0.0
2014-Apr-08 11:33N 59°28' E 024°43'0 0.0
2014-Apr-08 10:33N 59°28' E 024°43'0 0.0
2014-Apr-08 09:33N 59°28' E 024°43'0 0.0
2014-Apr-08 08:33N 59°28' E 024°43'0 0.0
2014-Apr-08 07:33N 59°28' E 024°43'0 0.0
2014-Apr-08 06:33N 59°28' E 024°43'0 0.0
2014-Apr-08 05:33N 59°28' E 024°43'0 0.0
2014-Apr-08 04:33N 59°28' E 024°43'2 2.3
2014-Apr-08 03:33N 59°30' E 024°42'3 2.9
2014-Apr-08 02:33N 59°28' E 024°39'0 0.0
2014-Apr-08 01:33N 59°28' E 024°39'0 0.0
2014-Apr-08 00:33N 59°28' E 024°39'0 0.0
2014-Apr-07 23:33N 59°28' E 024°39'0 0.0
2014-Apr-07 22:33N 59°28' E 024°39'0 0.0
2014-Apr-07 21:33N 59°28' E 024°39'0 0.0
2014-Apr-07 20:33N 59°28' E 024°39'0 0.0
2014-Apr-07 19:33N 59°28' E 024°39'0 0.0
2014-Apr-07 17:33N 59°28' E 024°39'0 0.0
2014-Apr-07 16:33N 59°28' E 024°39'0 0.0
2014-Apr-07 15:30N 59°28' E 024°39'0 0.0
2014-Apr-07 14:33N 59°28' E 024°39'0 0.0
2014-Apr-07 13:33N 59°28' E 024°39'0 0.0
2014-Apr-07 12:33N 59°28' E 024°39'0 0.0
2014-Apr-07 11:33N 59°28' E 024°39'0 0.0
2014-Apr-07 10:33N 59°28' E 024°39'0 0.0
2014-Apr-07 09:33N 59°28' E 024°39'0 0.0
2014-Apr-07 08:33N 59°28' E 024°39'0 0.0
2014-Apr-07 07:33N 59°28' E 024°39'0 0.0
2014-Apr-07 06:33N 59°28' E 024°39'0 0.0
2014-Apr-07 05:33N 59°28' E 024°39'0 0.0
2014-Apr-07 04:33N 59°28' E 024°39'2 1.8
2014-Apr-07 03:34N 59°30' E 024°38'5 5.0
2014-Apr-07 02:33N 59°27' E 024°46'0 0.0
2014-Apr-07 01:34N 59°27' E 024°46'0 0.0
2014-Apr-07 00:33N 59°27' E 024°46'  

Dump ship's entire track history

sailing weather and tide predictions

Viimsi — ES2084 — position and weather